createdAt,value
2019-01-18T00:02:01.954Z,97297.80
2019-01-18T00:04:33.406Z,97297.12
2019-01-18T00:07:04.860Z,97302.23
2019-01-18T00:09:36.199Z,97309.39
2019-01-18T00:12:07.610Z,97299.91
2019-01-18T00:14:38.993Z,97306.94
2019-01-18T00:17:10.310Z,97307.57
2019-01-18T00:19:41.634Z,97314.20
2019-01-18T00:22:14.349Z,97316.61
2019-01-18T00:24:46.191Z,97316.24
2019-01-18T00:27:20.746Z,97316.89
2019-01-18T00:29:52.263Z,97319.84
2019-01-18T00:32:32.371Z,97319.61
2019-01-18T00:35:32.070Z,97323.92
2019-01-18T00:38:22.878Z,97321.28
2019-01-18T00:41:19.899Z,97322.33
2019-01-18T00:44:10.762Z,97312.38
2019-01-18T00:46:49.190Z,97314.17
2019-01-18T00:49:20.641Z,97313.45
2019-01-18T00:51:52.033Z,97314.41
2019-01-18T00:54:23.576Z,97313.05
2019-01-18T00:56:54.919Z,97316.24
2019-01-18T00:59:26.307Z,97313.45
2019-01-18T01:01:57.688Z,97313.45
2019-01-18T01:04:29.445Z,97307.17
2019-01-18T01:07:00.664Z,97311.14
2019-01-18T01:09:32.529Z,97309.27
2019-01-18T01:12:05.361Z,97309.94
2019-01-18T01:14:36.854Z,97304.91
2019-01-18T01:17:08.720Z,97303.63
2019-01-18T01:19:40.212Z,97301.30
2019-01-18T01:22:11.568Z,97305.22
2019-01-18T01:24:43.040Z,97304.85
2019-01-18T01:27:14.563Z,97301.94
2019-01-18T01:29:46.015Z,97303.78
2019-01-18T01:32:17.491Z,97299.66
2019-01-18T01:34:49.025Z,97304.20
2019-01-18T01:37:20.561Z,97304.56
2019-01-18T01:39:51.983Z,97303.37
2019-01-18T01:42:23.451Z,97301.65
2019-01-18T01:44:54.988Z,97294.94
2019-01-18T01:47:26.455Z,97297.38
2019-01-18T01:49:57.996Z,97297.75
2019-01-18T01:52:29.579Z,97294.12
2019-01-18T01:55:01.372Z,97296.80
2019-01-18T01:57:32.861Z,97292.36
2019-01-18T02:00:06.034Z,97294.40
2019-01-18T02:02:37.549Z,97293.92
2019-01-18T02:05:09.259Z,97286.38
2019-01-18T02:07:40.688Z,97284.66
2019-01-18T02:10:13.734Z,97288.89
2019-01-18T02:12:45.288Z,97287.48
2019-01-18T02:15:19.230Z,97292.89
2019-01-18T02:17:50.855Z,97294.16
2019-01-18T02:20:23.093Z,97288.02
2019-01-18T02:22:54.727Z,97288.20
2019-01-18T02:25:26.059Z,97285.89
2019-01-18T02:27:57.509Z,97280.56
2019-01-18T02:30:31.690Z,97286.13
2019-01-18T02:33:03.221Z,97282.37
2019-01-18T02:35:34.576Z,97276.89
2019-01-18T02:38:06.392Z,97276.16
2019-01-18T02:40:37.741Z,97274.44
2019-01-18T02:43:09.143Z,97268.56
2019-01-18T02:45:40.491Z,97272.77
2019-01-18T02:48:11.852Z,97267.96
2019-01-18T02:50:43.389Z,97268.88
2019-01-18T02:53:14.833Z,97270.59
2019-01-18T02:55:46.272Z,97262.01
2019-01-18T02:58:17.711Z,97264.56
2019-01-18T03:00:49.161Z,97262.17
2019-01-18T03:03:20.709Z,97269.38
2019-01-18T03:05:52.137Z,97260.72
2019-01-18T03:08:23.574Z,97268.03
2019-01-18T03:10:54.766Z,97267.55
2019-01-18T03:13:26.172Z,97263.20
2019-01-18T03:15:57.546Z,97261.08
2019-01-18T03:18:29.078Z,97263.91
2019-01-18T03:21:00.480Z,97265.23
2019-01-18T03:23:31.789Z,97261.64
2019-01-18T03:26:03.341Z,97264.84
2019-01-18T03:28:34.733Z,97261.08
2019-01-18T03:31:06.186Z,97245.97
2019-01-18T03:33:37.550Z,97250.88
2019-01-18T03:36:08.991Z,97247.05
2019-01-18T03:38:40.428Z,97249.09
2019-01-18T03:41:11.901Z,97247.05
2019-01-18T03:43:43.223Z,97249.52
2019-01-18T03:46:14.636Z,97248.16
2019-01-18T03:48:45.909Z,97252.00
2019-01-18T03:51:17.440Z,97249.09
2019-01-18T03:53:48.825Z,97246.05
2019-01-18T03:56:20.278Z,97242.97
2019-01-18T03:58:51.714Z,97243.90
2019-01-18T04:01:23.188Z,97244.63
2019-01-18T04:03:54.599Z,97251.13
2019-01-18T04:06:26.037Z,97247.70
2019-01-18T04:08:57.481Z,97248.81
2019-01-18T04:11:29.080Z,97251.40
2019-01-18T04:14:01.601Z,97257.47
2019-01-18T04:16:33.291Z,97256.66
2019-01-18T04:19:04.659Z,97253.59
2019-01-18T04:21:36.074Z,97259.34
2019-01-18T04:24:07.487Z,97262.63
2019-01-18T04:26:38.980Z,97265.06
2019-01-18T04:29:10.570Z,97264.98
2019-01-18T04:31:42.008Z,97267.59
2019-01-18T04:34:13.430Z,97262.84
2019-01-18T04:36:44.812Z,97270.47
2019-01-18T04:39:16.300Z,97271.23
2019-01-18T04:41:47.781Z,97270.70
2019-01-18T04:44:19.150Z,97280.49
2019-01-18T04:46:50.590Z,97273.91
2019-01-18T04:49:22.038Z,97275.50
2019-01-18T04:51:53.277Z,97278.58
2019-01-18T04:54:24.581Z,97275.62
2019-01-18T04:56:55.957Z,97278.17
2019-01-18T04:59:27.367Z,97274.74
2019-01-18T05:01:58.786Z,97272.38
2019-01-18T05:04:32.019Z,97278.58
2019-01-18T05:07:03.679Z,97284.33
2019-01-18T05:09:35.296Z,97284.92
2019-01-18T05:12:06.747Z,97282.48
2019-01-18T05:14:38.335Z,97283.37
2019-01-18T05:17:09.844Z,97284.53
2019-01-18T05:19:41.642Z,97288.16
2019-01-18T05:22:13.132Z,97283.34
2019-01-18T05:24:49.325Z,97283.48
2019-01-18T05:27:17.769Z,97278.78
2019-01-18T05:29:49.189Z,97278.42
2019-01-18T05:32:20.581Z,97272.98
2019-01-18T05:34:51.913Z,97269.08
2019-01-18T05:37:23.367Z,97267.04
2019-01-18T05:39:54.844Z,97270.35
2019-01-18T05:42:26.333Z,97262.84
2019-01-18T05:44:57.807Z,97257.72
2019-01-18T05:47:29.145Z,97261.69
2019-01-18T05:51:23.768Z,97263.80
2019-01-18T05:54:02.797Z,97267.23
2019-01-18T05:56:34.209Z,97266.00
2019-01-18T05:59:05.684Z,97272.03
2019-01-18T06:01:37.321Z,97265.48
2019-01-18T06:04:10.241Z,97266.27
2019-01-18T06:06:41.940Z,97274.27
2019-01-18T06:09:13.448Z,97269.15
2019-01-18T06:11:44.961Z,97269.70
2019-01-18T06:14:16.516Z,97276.46
2019-01-18T06:16:48.020Z,97280.17
2019-01-18T06:19:19.491Z,97277.66
2019-01-18T06:21:50.792Z,97277.14
2019-01-18T06:24:22.258Z,97272.34
2019-01-18T06:26:53.716Z,97269.71
2019-01-18T06:29:25.314Z,97269.39
2019-01-18T06:31:56.661Z,97268.71
2019-01-18T06:34:28.061Z,97268.75
2019-01-18T06:37:06.733Z,97269.31
2019-01-18T06:39:38.221Z,97281.61
2019-01-18T06:42:13.666Z,97282.55
2019-01-18T06:44:47.300Z,97278.62
2019-01-18T06:47:18.750Z,97279.97
2019-01-18T06:49:50.199Z,97288.95
2019-01-18T06:52:21.546Z,97279.25
2019-01-18T06:54:53.001Z,97284.04
2019-01-18T06:57:24.473Z,97284.89
2019-01-18T06:59:55.940Z,97287.90
2019-01-18T07:02:27.676Z,97287.46
2019-01-18T07:04:59.757Z,97295.73
2019-01-18T07:07:31.353Z,97289.94
2019-01-18T07:10:03.040Z,97292.41
2019-01-18T07:12:34.772Z,97299.12
2019-01-18T07:15:09.418Z,97296.77
2019-01-18T07:17:40.862Z,97287.79
2019-01-18T07:20:13.932Z,97291.17
2019-01-18T07:22:45.540Z,97288.89
2019-01-18T07:25:19.401Z,97298.33
2019-01-18T07:27:50.758Z,97295.23
2019-01-18T07:30:24.955Z,97284.85
2019-01-18T07:32:56.562Z,97289.51
2019-01-18T07:35:28.225Z,97287.51
2019-01-18T07:37:59.859Z,97292.20
2019-01-18T07:40:31.345Z,97295.45
2019-01-18T07:43:02.875Z,97302.42
2019-01-18T07:45:34.393Z,97300.81
2019-01-18T07:48:06.113Z,97305.46
2019-01-18T07:50:37.554Z,97301.07
2019-01-18T07:53:09.118Z,97302.20
2019-01-18T07:55:40.579Z,97307.36
2019-01-18T07:58:11.980Z,97299.05
2019-01-18T08:00:43.580Z,97300.09
2019-01-18T08:03:15.129Z,97297.00
2019-01-18T08:05:47.029Z,97306.28
2019-01-18T08:08:18.615Z,97305.49
2019-01-18T08:10:51.242Z,97305.69
2019-01-18T08:13:22.771Z,97317.78
2019-01-18T08:15:54.295Z,97312.39
2019-01-18T08:18:25.900Z,97322.17
2019-01-18T08:21:15.208Z,97316.03
2019-01-18T08:23:56.492Z,97318.57
2019-01-18T08:26:27.931Z,97313.23
2019-01-18T08:28:59.369Z,97324.28
2019-01-18T08:31:30.947Z,97319.52
2019-01-18T08:34:02.526Z,97326.63
2019-01-18T08:36:34.014Z,97325.16
2019-01-18T08:39:08.233Z,97331.13
2019-01-18T08:41:39.863Z,97331.89
2019-01-18T08:44:11.205Z,97332.62
2019-01-18T08:46:42.842Z,97329.22
2019-01-18T08:49:14.391Z,97325.86
2019-01-18T08:51:45.906Z,97332.45
2019-01-18T08:54:17.352Z,97338.45
2019-01-18T08:56:48.870Z,97332.07
2019-01-18T08:59:20.330Z,97339.02
2019-01-18T09:01:51.850Z,97334.47
2019-01-18T09:04:23.299Z,97337.66
2019-01-18T09:06:54.745Z,97333.84
2019-01-18T09:09:26.381Z,97325.86
2019-01-18T09:11:57.759Z,97325.87
2019-01-18T09:14:29.202Z,97329.47
2019-01-18T09:17:00.631Z,97332.02
2019-01-18T09:19:32.224Z,97321.81
2019-01-18T09:22:12.328Z,97316.58
2019-01-18T09:24:43.766Z,97318.52
2019-01-18T09:27:15.219Z,97323.85
2019-01-18T09:29:46.740Z,97314.04
2019-01-18T09:32:18.441Z,97319.76
2019-01-18T09:34:50.033Z,97319.42
2019-01-18T09:37:21.641Z,97314.30
2019-01-18T09:40:03.136Z,97313.52
2019-01-18T09:42:36.707Z,97307.02
2019-01-18T09:45:09.441Z,97308.97
2019-01-18T09:47:40.933Z,97306.06
2019-01-18T09:50:22.133Z,97309.57
2019-01-18T09:52:56.640Z,97307.23
2019-01-18T09:55:29.019Z,97308.50
2019-01-18T09:58:00.431Z,97299.09
2019-01-18T10:00:36.871Z,97299.09
2019-01-18T10:03:08.241Z,97292.86
2019-01-18T10:05:39.738Z,97289.30
2019-01-18T10:08:12.918Z,97294.86
2019-01-18T10:10:44.387Z,97291.64
2019-01-18T10:13:15.858Z,97286.53
2019-01-18T10:15:48.300Z,97284.10
2019-01-18T10:18:19.748Z,97287.58
2019-01-18T10:20:52.021Z,97291.00
2019-01-18T10:23:23.418Z,97290.14
2019-01-18T10:25:54.846Z,97289.38
2019-01-18T10:28:26.445Z,97286.44
2019-01-18T10:30:58.046Z,97282.43
2019-01-18T10:33:29.515Z,97282.94
2019-01-18T10:36:01.007Z,97279.66
2019-01-18T10:38:32.357Z,97278.53
2019-01-18T10:41:03.803Z,97274.22
2019-01-18T10:43:35.118Z,97273.58
2019-01-18T10:46:06.500Z,97271.39
2019-01-18T10:48:37.921Z,97262.74
2019-01-18T10:51:09.471Z,97269.27
2019-01-18T10:53:40.936Z,97260.55
2019-01-18T10:56:12.416Z,97260.66
2019-01-18T10:58:43.819Z,97256.59
2019-01-18T11:01:15.202Z,97255.59
2019-01-18T11:03:46.725Z,97249.14
2019-01-18T11:06:18.189Z,97246.94
2019-01-18T11:08:49.607Z,97241.79
2019-01-18T11:11:21.087Z,97231.27
2019-01-18T11:13:52.305Z,97238.45
2019-01-18T11:16:25.026Z,97236.59
2019-01-18T11:18:56.696Z,97232.33
2019-01-18T11:21:28.199Z,97229.21
2019-01-18T11:23:59.676Z,97231.08
2019-01-18T11:26:31.117Z,97226.92
2019-01-18T11:29:02.653Z,97228.15
2019-01-18T11:31:33.943Z,97228.77
2019-01-18T11:34:05.411Z,97222.51
2019-01-18T11:36:36.971Z,97222.17
2019-01-18T11:39:09.469Z,97216.66
2019-01-18T11:41:40.844Z,97212.05
2019-01-18T11:44:12.102Z,97208.44
2019-01-18T11:46:43.452Z,97206.50
2019-01-18T11:49:14.865Z,97206.28
2019-01-18T11:51:46.253Z,97203.41
2019-01-18T11:54:17.756Z,97182.66
2019-01-18T11:56:49.449Z,97209.47
2019-01-18T11:59:20.970Z,97194.66
2019-01-18T12:01:52.413Z,97197.84
2019-01-18T12:04:23.833Z,97197.84
2019-01-18T12:06:55.269Z,97195.32
2019-01-18T12:09:26.728Z,97197.33
2019-01-18T12:11:58.012Z,97195.55
2019-01-18T12:14:29.431Z,97190.94
2019-01-18T12:17:00.971Z,97189.73
2019-01-18T12:19:33.592Z,97183.23
2019-01-18T12:22:05.174Z,97191.13
2019-01-18T12:24:36.781Z,97189.49
2019-01-18T12:27:08.309Z,97189.49
2019-01-18T12:29:39.723Z,97190.88
2019-01-18T12:32:11.244Z,97186.53
2019-01-18T12:34:42.800Z,97186.53
2019-01-18T12:37:14.312Z,97182.53
2019-01-18T12:39:45.692Z,97186.41
2019-01-18T12:42:17.093Z,97183.99
2019-01-18T12:44:48.451Z,97188.32
2019-01-18T12:47:19.960Z,97187.43
2019-01-18T12:49:51.412Z,97189.29
2019-01-18T12:52:22.940Z,97185.30
2019-01-18T12:54:54.449Z,97187.10
2019-01-18T12:57:25.860Z,97194.02
2019-01-18T12:59:57.351Z,97195.56
2019-01-18T13:02:35.180Z,97193.89
2019-01-18T13:05:02.145Z,97187.17
2019-01-18T13:07:33.653Z,97187.30
2019-01-18T13:10:11.606Z,97193.83
2019-01-18T13:12:38.489Z,97197.05
2019-01-18T13:15:14.358Z,97204.98
2019-01-18T13:17:45.793Z,97204.29
2019-01-18T13:20:17.458Z,97206.41
2019-01-18T13:22:49.040Z,97212.25
2019-01-18T13:25:20.622Z,97215.09
2019-01-18T13:27:52.222Z,97212.79
2019-01-18T13:30:23.573Z,97210.98
2019-01-18T13:32:55.034Z,97219.33
2019-01-18T13:35:27.648Z,97212.73
2019-01-18T13:37:59.289Z,97218.08
2019-01-18T13:40:30.827Z,97220.98
2019-01-18T13:43:02.264Z,97224.66
2019-01-18T13:45:33.754Z,97219.34
2019-01-18T13:48:05.382Z,97213.92
2019-01-18T13:50:36.951Z,97211.80
2019-01-18T13:53:09.514Z,97210.39
2019-01-18T13:55:40.999Z,97207.09
2019-01-18T13:58:12.431Z,97212.27
2019-01-18T14:00:43.937Z,97215.16
2019-01-18T14:03:15.419Z,97212.23
2019-01-18T14:05:46.909Z,97213.98
2019-01-18T14:08:18.431Z,97213.12
2019-01-18T14:10:49.848Z,97214.11
2019-01-18T14:13:21.477Z,97213.30
2019-01-18T14:15:52.967Z,97213.95
2019-01-18T14:18:24.403Z,97211.03
2019-01-18T14:20:55.940Z,97207.92
2019-01-18T14:23:27.362Z,97206.74
2019-01-18T14:25:58.841Z,97203.33
2019-01-18T14:28:30.382Z,97206.22
2019-01-18T14:31:01.997Z,97196.12
2019-01-18T14:33:33.577Z,97201.16
2019-01-18T14:36:05.232Z,97207.69
2019-01-18T14:38:36.695Z,97207.75
2019-01-18T14:41:08.146Z,97201.09
2019-01-18T14:43:39.653Z,97205.08
2019-01-18T14:46:11.187Z,97201.58
2019-01-18T14:48:42.703Z,97202.52
2019-01-18T14:51:14.082Z,97201.63
2019-01-18T14:53:45.539Z,97206.23
2019-01-18T14:56:16.911Z,97213.61
2019-01-18T14:58:48.459Z,97211.16
2019-01-18T15:01:19.809Z,97214.46
2019-01-18T15:03:54.177Z,97210.32
2019-01-18T15:06:24.467Z,97209.61
2019-01-18T15:08:55.960Z,97209.99
2019-01-18T15:11:27.582Z,97211.73
2019-01-18T15:13:58.950Z,97208.16
2019-01-18T15:16:30.377Z,97207.43
2019-01-18T15:19:01.979Z,97211.31
2019-01-18T15:21:33.314Z,97211.85
2019-01-18T15:24:05.104Z,97206.08
2019-01-18T15:26:36.395Z,97208.09
2019-01-18T15:29:07.881Z,97207.19
2019-01-18T15:31:39.296Z,97205.42
2019-01-18T15:34:10.693Z,97202.58
2019-01-18T15:36:42.015Z,97206.80
2019-01-18T15:39:14.357Z,97207.22
2019-01-18T15:41:45.697Z,97210.89
2019-01-18T15:44:17.219Z,97206.11
2019-01-18T15:46:48.709Z,97208.26
2019-01-18T15:49:20.133Z,97206.50
2019-01-18T15:51:51.591Z,97208.27
2019-01-18T15:54:23.028Z,97207.59
2019-01-18T15:56:54.452Z,97204.28
2019-01-18T15:59:26.078Z,97207.94
2019-01-18T16:01:57.620Z,97208.38
2019-01-18T16:04:29.085Z,97205.23
2019-01-18T16:07:01.462Z,97197.43
2019-01-18T16:09:33.049Z,97201.23
2019-01-18T16:12:04.595Z,97199.02
2019-01-18T16:14:36.063Z,97201.64
2019-01-18T16:17:12.731Z,97206.33
2019-01-18T16:19:44.338Z,97209.34
2019-01-18T16:22:15.689Z,97207.12
2019-01-18T16:24:47.048Z,97215.36
2019-01-18T16:27:18.483Z,97219.66
2019-01-18T16:29:49.874Z,97221.02
2019-01-18T16:32:21.924Z,97219.11
2019-01-18T16:34:53.410Z,97225.83
2019-01-18T16:37:24.942Z,97222.86
2019-01-18T16:39:56.488Z,97228.20
2019-01-18T16:42:28.065Z,97220.00
2019-01-18T16:44:59.573Z,97216.59
2019-01-18T16:47:30.950Z,97215.34
2019-01-18T16:50:02.462Z,97212.73
2019-01-18T16:52:33.846Z,97207.22
2019-01-18T16:55:05.823Z,97202.80
2019-01-18T16:57:37.236Z,97199.11
2019-01-18T17:00:20.600Z,97199.59
2019-01-18T17:02:52.154Z,97191.40
2019-01-18T17:05:27.304Z,97181.56
2019-01-18T17:08:00.164Z,97186.48
2019-01-18T17:10:31.651Z,97186.61
2019-01-18T17:13:03.019Z,97183.92
2019-01-18T17:15:34.468Z,97189.17
2019-01-18T17:18:06.231Z,97188.87
2019-01-18T17:20:40.355Z,97191.08
2019-01-18T17:23:11.946Z,97191.08
2019-01-18T17:25:43.486Z,97184.28
2019-01-18T17:28:14.938Z,97191.17
2019-01-18T17:30:46.405Z,97196.71
2019-01-18T17:33:17.883Z,97198.11
2019-01-18T17:36:00.142Z,97194.65
2019-01-18T17:39:08.081Z,97190.80
2019-01-18T17:42:11.270Z,97191.25
2019-01-18T17:45:32.410Z,97193.57
2019-01-18T17:48:36.594Z,97192.10
2019-01-18T17:51:42.198Z,97189.13
2019-01-18T17:54:38.600Z,97183.73
2019-01-18T17:57:33.790Z,97175.98
2019-01-18T18:00:32.319Z,97174.95
2019-01-18T18:03:36.749Z,97177.27
2019-01-18T18:06:46.133Z,97177.42
2019-01-18T18:09:37.197Z,97170.41
2019-01-18T18:13:07.372Z,97173.13
2019-01-18T18:16:14.978Z,97171.75
2019-01-18T18:19:21.527Z,97171.01
2019-01-18T18:22:08.657Z,97165.37
2019-01-18T18:25:10.268Z,97166.09
2019-01-18T18:28:03.196Z,97168.30
2019-01-18T18:30:57.688Z,97168.30
2019-01-18T18:33:52.406Z,97165.73
2019-01-18T18:36:56.345Z,97169.05
2019-01-18T18:40:12.698Z,97156.94
2019-01-18T18:43:15.313Z,97161.05
2019-01-18T18:46:12.080Z,97159.35
2019-01-18T18:49:19.109Z,97166.00
2019-01-18T18:52:20.396Z,97165.64
2019-01-18T18:55:29.471Z,97171.74
2019-01-18T18:58:41.278Z,97170.34
2019-01-18T19:01:41.754Z,97168.97
2019-01-18T19:04:48.576Z,97171.77
2019-01-18T19:08:03.576Z,97162.94
2019-01-18T19:11:00.623Z,97168.98
2019-01-18T19:14:06.182Z,97158.73
2019-01-18T19:17:26.437Z,97160.14
2019-01-18T19:20:56.182Z,97156.60
2019-01-18T19:23:53.514Z,97160.66
2019-01-18T19:27:05.371Z,97165.21
2019-01-18T19:30:04.283Z,97167.59
2019-01-18T19:33:20.510Z,97167.23
2019-01-18T19:36:27.975Z,97174.33
2019-01-18T19:39:34.463Z,97165.78
2019-01-18T19:42:28.872Z,97166.08
2019-01-18T19:45:32.566Z,97173.09
2019-01-18T19:48:33.205Z,97171.83
2019-01-18T19:51:44.874Z,97182.08
2019-01-18T19:55:08.900Z,97175.05
2019-01-18T19:58:03.992Z,97176.78
2019-01-18T20:01:05.546Z,97178.12
2019-01-18T20:04:21.701Z,97171.94
2019-01-18T20:07:21.242Z,97176.44
2019-01-18T20:10:41.209Z,97175.09
2019-01-18T20:13:54.057Z,97187.73
2019-01-18T20:16:41.245Z,97181.30
2019-01-18T20:19:38.937Z,97181.65
2019-01-18T20:22:32.188Z,97184.81
2019-01-18T20:25:22.697Z,97183.20
2019-01-18T20:28:31.881Z,97189.62
2019-01-18T20:31:41.302Z,97185.59
2019-01-18T20:34:40.750Z,97188.01
2019-01-18T20:38:07.212Z,97185.20
2019-01-18T20:41:14.795Z,97189.70
2019-01-18T20:44:00.459Z,97187.83
2019-01-18T20:47:18.407Z,97190.95
2019-01-18T20:50:39.144Z,97192.98
2019-01-18T20:53:19.390Z,97192.10
2019-01-18T20:56:28.366Z,97198.52
2019-01-18T20:59:14.030Z,97196.94
2019-01-18T21:02:36.982Z,97202.22
2019-01-18T21:05:54.424Z,97205.77
2019-01-18T21:09:09.750Z,97206.22
2019-01-18T21:12:14.560Z,97211.19
2019-01-18T21:15:20.281Z,97212.27
2019-01-18T21:18:20.388Z,97210.75
2019-01-18T21:21:50.770Z,97210.99
2019-01-18T21:24:46.966Z,97208.88
2019-01-18T21:27:54.237Z,97211.34
2019-01-18T21:31:03.360Z,97210.99
2019-01-18T21:34:33.077Z,97217.49
2019-01-18T21:37:30.365Z,97213.80
2019-01-18T21:40:29.758Z,97216.04
2019-01-18T21:43:46.675Z,97212.06
2019-01-18T21:47:06.615Z,97213.14
2019-01-18T21:50:03.394Z,97213.73
2019-01-18T21:53:09.913Z,97216.30
2019-01-18T21:56:01.821Z,97224.06
2019-01-18T21:59:13.069Z,97226.47
2019-01-18T22:02:22.441Z,97223.38
2019-01-18T22:05:14.009Z,97228.30
2019-01-18T22:08:34.869Z,97233.33
2019-01-18T22:11:21.131Z,97224.56
2019-01-18T22:14:37.415Z,97219.05
2019-01-18T22:17:49.615Z,97222.65
2019-01-18T22:21:01.234Z,97226.80
2019-01-18T22:23:56.514Z,97216.83
2019-01-18T22:27:23.444Z,97220.83
2019-01-18T22:30:45.920Z,97220.38
2019-01-18T22:33:32.010Z,97226.20
2019-01-18T22:36:45.562Z,97228.82
2019-01-18T22:39:46.099Z,97226.55
2019-01-18T22:42:55.715Z,97218.31
2019-01-18T22:45:58.826Z,97217.68
2019-01-18T22:48:57.267Z,97221.53
2019-01-18T22:52:10.770Z,97224.48
2019-01-18T22:55:29.052Z,97232.77
2019-01-18T22:58:36.738Z,97224.52
2019-01-18T23:02:19.453Z,97230.70
2019-01-18T23:05:13.580Z,97229.00
2019-01-18T23:08:21.361Z,97232.38
2019-01-18T23:11:29.491Z,97233.39
2019-01-18T23:14:55.688Z,97233.75
2019-01-18T23:18:10.519Z,97220.95
2019-01-18T23:21:10.181Z,97249.73
2019-01-18T23:24:05.362Z,97247.83
2019-01-18T23:27:22.773Z,97254.33
2019-01-18T23:30:14.727Z,97262.98
2019-01-18T23:33:38.632Z,97262.44
2019-01-18T23:36:37.237Z,97264.47
2019-01-18T23:39:38.653Z,97268.23
2019-01-18T23:42:52.145Z,97267.45
2019-01-18T23:45:43.710Z,97269.45
2019-01-18T23:48:51.979Z,97271.69
2019-01-18T23:51:47.753Z,97277.56
2019-01-18T23:54:56.193Z,97277.39
2019-01-18T23:58:22.863Z,97272.08
